sensor_id;sensor_type;location;lat;lon;timestamp;P1;durP1;ratioP1;P2;durP2;ratioP2
3149;SDS011;32503;47.748;8.960;2022-12-07T00:01:40;20.67;;;11.00;;
3149;SDS011;32503;47.748;8.960;2022-12-07T00:04:10;24.77;;;11.77;;
3149;SDS011;32503;47.748;8.960;2022-12-07T00:06:40;33.60;;;13.63;;
3149;SDS011;32503;47.748;8.960;2022-12-07T00:09:09;20.47;;;12.80;;
3149;SDS011;32503;47.748;8.960;2022-12-07T00:11:38;25.60;;;12.00;;
3149;SDS011;32503;47.748;8.960;2022-12-07T00:14:06;27.53;;;13.90;;
3149;SDS011;32503;47.748;8.960;2022-12-07T00:16:37;25.23;;;13.40;;
3149;SDS011;32503;47.748;8.960;2022-12-07T00:19:06;24.13;;;12.93;;
3149;SDS011;32503;47.748;8.960;2022-12-07T00:21:34;26.83;;;12.20;;
3149;SDS011;32503;47.748;8.960;2022-12-07T00:24:02;23.13;;;11.67;;
3149;SDS011;32503;47.748;8.960;2022-12-07T00:26:32;32.77;;;15.23;;
3149;SDS011;32503;47.748;8.960;2022-12-07T00:29:02;29.03;;;12.37;;
3149;SDS011;32503;47.748;8.960;2022-12-07T00:31:31;25.80;;;13.40;;
3149;SDS011;32503;47.748;8.960;2022-12-07T00:34:05;25.80;;;13.87;;
3149;SDS011;32503;47.748;8.960;2022-12-07T00:36:32;24.57;;;11.80;;
3149;SDS011;32503;47.748;8.960;2022-12-07T00:39:00;23.17;;;12.70;;
3149;SDS011;32503;47.748;8.960;2022-12-07T00:41:27;23.90;;;12.03;;
3149;SDS011;32503;47.748;8.960;2022-12-07T00:43:55;26.57;;;13.63;;
3149;SDS011;32503;47.748;8.960;2022-12-07T00:46:23;28.93;;;14.10;;
3149;SDS011;32503;47.748;8.960;2022-12-07T00:48:51;32.00;;;15.40;;
3149;SDS011;32503;47.748;8.960;2022-12-07T00:51:21;26.57;;;12.90;;
3149;SDS011;32503;47.748;8.960;2022-12-07T00:53:50;25.97;;;12.20;;
3149;SDS011;32503;47.748;8.960;2022-12-07T00:56:18;28.73;;;13.30;;
3149;SDS011;32503;47.748;8.960;2022-12-07T00:58:49;26.77;;;12.63;;
3149;SDS011;32503;47.748;8.960;2022-12-07T01:01:18;27.20;;;12.27;;
3149;SDS011;32503;47.748;8.960;2022-12-07T01:03:45;20.30;;;11.77;;
3149;SDS011;32503;47.748;8.960;2022-12-07T01:06:13;29.47;;;13.43;;
3149;SDS011;32503;47.748;8.960;2022-12-07T01:08:43;36.10;;;14.93;;
3149;SDS011;32503;47.748;8.960;2022-12-07T01:11:12;31.03;;;14.33;;
3149;SDS011;32503;47.748;8.960;2022-12-07T01:13:41;30.60;;;13.87;;
3149;SDS011;32503;47.748;8.960;2022-12-07T01:16:10;26.13;;;12.27;;
3149;SDS011;32503;47.748;8.960;2022-12-07T01:18:39;25.03;;;13.43;;
3149;SDS011;32503;47.748;8.960;2022-12-07T01:21:08;25.70;;;13.07;;
3149;SDS011;32503;47.748;8.960;2022-12-07T01:23:38;30.00;;;14.03;;
3149;SDS011;32503;47.748;8.960;2022-12-07T01:26:07;33.67;;;13.63;;
3149;SDS011;32503;47.748;8.960;2022-12-07T01:28:38;28.80;;;12.63;;
3149;SDS011;32503;47.748;8.960;2022-12-07T01:31:06;27.23;;;13.47;;
3149;SDS011;32503;47.748;8.960;2022-12-07T01:33:37;23.67;;;12.50;;
3149;SDS011;32503;47.748;8.960;2022-12-07T01:36:06;23.03;;;11.93;;
3149;SDS011;32503;47.748;8.960;2022-12-07T01:38:39;19.63;;;10.70;;
3149;SDS011;32503;47.748;8.960;2022-12-07T01:41:07;22.50;;;12.03;;
3149;SDS011;32503;47.748;8.960;2022-12-07T01:43:35;30.77;;;14.30;;
3149;SDS011;32503;47.748;8.960;2022-12-07T01:46:03;31.47;;;14.43;;
3149;SDS011;32503;47.748;8.960;2022-12-07T01:48:31;25.87;;;11.87;;
3149;SDS011;32503;47.748;8.960;2022-12-07T01:51:04;32.47;;;13.77;;
3149;SDS011;32503;47.748;8.960;2022-12-07T01:53:35;25.00;;;12.40;;
3149;SDS011;32503;47.748;8.960;2022-12-07T01:56:04;26.53;;;12.90;;
3149;SDS011;32503;47.748;8.960;2022-12-07T01:58:37;21.70;;;12.73;;
3149;SDS011;32503;47.748;8.960;2022-12-07T02:01:04;25.93;;;12.63;;
3149;SDS011;32503;47.748;8.960;2022-12-07T02:03:31;23.63;;;11.90;;
3149;SDS011;32503;47.748;8.960;2022-12-07T02:06:02;30.30;;;13.63;;
3149;SDS011;32503;47.748;8.960;2022-12-07T02:08:30;31.13;;;13.07;;
3149;SDS011;32503;47.748;8.960;2022-12-07T02:10:58;27.73;;;12.80;;
3149;SDS011;32503;47.748;8.960;2022-12-07T02:13:28;24.90;;;13.17;;
3149;SDS011;32503;47.748;8.960;2022-12-07T02:16:09;26.07;;;13.83;;
3149;SDS011;32503;47.748;8.960;2022-12-07T02:18:54;26.87;;;13.70;;
3149;SDS011;32503;47.748;8.960;2022-12-07T02:21:38;22.97;;;11.80;;
3149;SDS011;32503;47.748;8.960;2022-12-07T02:24:22;24.60;;;13.77;;
3149;SDS011;32503;47.748;8.960;2022-12-07T02:30:08;24.70;;;13.30;;
3149;SDS011;32503;47.748;8.960;2022-12-07T02:32:40;21.83;;;12.00;;
3149;SDS011;32503;47.748;8.960;2022-12-07T02:35:17;19.50;;;11.10;;
3149;SDS011;32503;47.748;8.960;2022-12-07T02:37:49;23.30;;;12.17;;
3149;SDS011;32503;47.748;8.960;2022-12-07T02:40:27;24.10;;;13.40;;
3149;SDS011;32503;47.748;8.960;2022-12-07T02:43:01;33.67;;;15.63;;
3149;SDS011;32503;47.748;8.960;2022-12-07T02:45:35;33.20;;;14.00;;
3149;SDS011;32503;47.748;8.960;2022-12-07T02:48:06;30.33;;;13.13;;
3149;SDS011;32503;47.748;8.960;2022-12-07T02:50:36;29.20;;;13.50;;
3149;SDS011;32503;47.748;8.960;2022-12-07T02:53:03;28.80;;;14.70;;
3149;SDS011;32503;47.748;8.960;2022-12-07T02:55:32;23.17;;;11.63;;
3149;SDS011;32503;47.748;8.960;2022-12-07T02:58:17;24.97;;;12.53;;
3149;SDS011;32503;47.748;8.960;2022-12-07T03:00:59;27.83;;;12.90;;
3149;SDS011;32503;47.748;8.960;2022-12-07T03:03:35;31.20;;;14.13;;
3149;SDS011;32503;47.748;8.960;2022-12-07T03:06:09;28.40;;;13.80;;
3149;SDS011;32503;47.748;8.960;2022-12-07T03:08:44;31.43;;;15.50;;
3149;SDS011;32503;47.748;8.960;2022-12-07T03:11:21;30.93;;;14.37;;
3149;SDS011;32503;47.748;8.960;2022-12-07T03:13:58;25.03;;;12.80;;
3149;SDS011;32503;47.748;8.960;2022-12-07T03:16:33;28.77;;;13.43;;
3149;SDS011;32503;47.748;8.960;2022-12-07T03:19:06;32.57;;;14.40;;
3149;SDS011;32503;47.748;8.960;2022-12-07T03:21:38;25.80;;;13.63;;
3149;SDS011;32503;47.748;8.960;2022-12-07T03:24:09;27.17;;;13.57;;
3149;SDS011;32503;47.748;8.960;2022-12-07T03:26:41;28.00;;;14.27;;
3149;SDS011;32503;47.748;8.960;2022-12-07T03:29:16;31.07;;;14.40;;
3149;SDS011;32503;47.748;8.960;2022-12-07T03:31:50;31.40;;;14.30;;
3149;SDS011;32503;47.748;8.960;2022-12-07T03:34:26;33.37;;;15.20;;
3149;SDS011;32503;47.748;8.960;2022-12-07T03:37:00;21.40;;;12.27;;
3149;SDS011;32503;47.748;8.960;2022-12-07T03:39:33;30.07;;;15.33;;
3149;SDS011;32503;47.748;8.960;2022-12-07T03:42:05;31.57;;;14.33;;
3149;SDS011;32503;47.748;8.960;2022-12-07T03:44:36;21.73;;;11.83;;
3149;SDS011;32503;47.748;8.960;2022-12-07T03:47:06;24.70;;;11.93;;
3149;SDS011;32503;47.748;8.960;2022-12-07T03:49:43;29.00;;;13.47;;
3149;SDS011;32503;47.748;8.960;2022-12-07T03:52:16;22.83;;;12.10;;
3149;SDS011;32503;47.748;8.960;2022-12-07T03:54:51;29.10;;;13.17;;
3149;SDS011;32503;47.748;8.960;2022-12-07T03:57:25;23.53;;;11.40;;
3149;SDS011;32503;47.748;8.960;2022-12-07T03:59:54;25.67;;;12.60;;
3149;SDS011;32503;47.748;8.960;2022-12-07T04:02:24;27.67;;;13.83;;
3149;SDS011;32503;47.748;8.960;2022-12-07T04:04:54;27.40;;;12.20;;
3149;SDS011;32503;47.748;8.960;2022-12-07T04:07:22;29.50;;;12.73;;
3149;SDS011;32503;47.748;8.960;2022-12-07T04:09:49;29.73;;;13.70;;
3149;SDS011;32503;47.748;8.960;2022-12-07T04:12:17;23.73;;;12.93;;
3149;SDS011;32503;47.748;8.960;2022-12-07T04:14:44;27.43;;;13.37;;
3149;SDS011;32503;47.748;8.960;2022-12-07T04:17:11;26.10;;;12.37;;
3149;SDS011;32503;47.748;8.960;2022-12-07T04:19:40;26.47;;;12.87;;
3149;SDS011;32503;47.748;8.960;2022-12-07T04:22:07;27.53;;;14.10;;
3149;SDS011;32503;47.748;8.960;2022-12-07T04:24:34;30.13;;;12.30;;
3149;SDS011;32503;47.748;8.960;2022-12-07T04:27:01;27.80;;;12.00;;
3149;SDS011;32503;47.748;8.960;2022-12-07T04:29:29;24.97;;;12.80;;
3149;SDS011;32503;47.748;8.960;2022-12-07T04:31:56;21.93;;;10.30;;
3149;SDS011;32503;47.748;8.960;2022-12-07T04:34:23;25.27;;;13.03;;
3149;SDS011;32503;47.748;8.960;2022-12-07T04:36:51;29.70;;;14.87;;
3149;SDS011;32503;47.748;8.960;2022-12-07T04:39:19;29.37;;;13.50;;
3149;SDS011;32503;47.748;8.960;2022-12-07T04:41:49;24.07;;;11.83;;
3149;SDS011;32503;47.748;8.960;2022-12-07T04:44:17;28.47;;;13.60;;
3149;SDS011;32503;47.748;8.960;2022-12-07T04:46:45;31.40;;;12.40;;
3149;SDS011;32503;47.748;8.960;2022-12-07T04:49:13;27.80;;;13.10;;
3149;SDS011;32503;47.748;8.960;2022-12-07T04:51:41;28.63;;;13.33;;
3149;SDS011;32503;47.748;8.960;2022-12-07T04:54:10;24.20;;;12.87;;
3149;SDS011;32503;47.748;8.960;2022-12-07T04:56:37;22.60;;;13.27;;
3149;SDS011;32503;47.748;8.960;2022-12-07T04:59:04;28.07;;;13.10;;
3149;SDS011;32503;47.748;8.960;2022-12-07T05:01:32;26.13;;;13.70;;
3149;SDS011;32503;47.748;8.960;2022-12-07T05:04:00;19.90;;;10.67;;
3149;SDS011;32503;47.748;8.960;2022-12-07T05:06:27;24.73;;;13.23;;
3149;SDS011;32503;47.748;8.960;2022-12-07T05:08:54;29.90;;;12.97;;
3149;SDS011;32503;47.748;8.960;2022-12-07T05:11:22;25.50;;;13.07;;
3149;SDS011;32503;47.748;8.960;2022-12-07T05:14:13;27.63;;;13.93;;
3149;SDS011;32503;47.748;8.960;2022-12-07T05:16:46;24.03;;;11.20;;
3149;SDS011;32503;47.748;8.960;2022-12-07T05:19:16;24.87;;;13.10;;
3149;SDS011;32503;47.748;8.960;2022-12-07T05:21:44;24.27;;;11.30;;
3149;SDS011;32503;47.748;8.960;2022-12-07T05:24:13;30.53;;;13.00;;
3149;SDS011;32503;47.748;8.960;2022-12-07T05:26:42;26.10;;;12.80;;
3149;SDS011;32503;47.748;8.960;2022-12-07T05:29:11;24.60;;;12.87;;
3149;SDS011;32503;47.748;8.960;2022-12-07T05:31:39;24.10;;;13.07;;
3149;SDS011;32503;47.748;8.960;2022-12-07T05:34:06;33.10;;;13.17;;
3149;SDS011;32503;47.748;8.960;2022-12-07T05:36:34;27.40;;;13.70;;
3149;SDS011;32503;47.748;8.960;2022-12-07T05:39:01;25.50;;;12.90;;
3149;SDS011;32503;47.748;8.960;2022-12-07T05:41:28;28.73;;;15.23;;
3149;SDS011;32503;47.748;8.960;2022-12-07T05:44:15;25.50;;;13.90;;
3149;SDS011;32503;47.748;8.960;2022-12-07T05:46:42;23.90;;;13.23;;
3149;SDS011;32503;47.748;8.960;2022-12-07T05:49:09;29.13;;;15.70;;
3149;SDS011;32503;47.748;8.960;2022-12-07T05:51:36;24.83;;;13.07;;
3149;SDS011;32503;47.748;8.960;2022-12-07T05:54:03;26.23;;;13.93;;
3149;SDS011;32503;47.748;8.960;2022-12-07T05:56:30;27.00;;;14.50;;
3149;SDS011;32503;47.748;8.960;2022-12-07T05:58:57;24.60;;;12.70;;
3149;SDS011;32503;47.748;8.960;2022-12-07T06:01:43;25.40;;;12.73;;
3149;SDS011;32503;47.748;8.960;2022-12-07T06:04:10;29.77;;;13.80;;
3149;SDS011;32503;47.748;8.960;2022-12-07T06:06:37;24.87;;;13.03;;
3149;SDS011;32503;47.748;8.960;2022-12-07T06:09:04;29.30;;;13.37;;
3149;SDS011;32503;47.748;8.960;2022-12-07T06:11:31;28.63;;;13.80;;
3149;SDS011;32503;47.748;8.960;2022-12-07T06:14:16;30.47;;;13.83;;
3149;SDS011;32503;47.748;8.960;2022-12-07T06:16:44;24.27;;;13.33;;
3149;SDS011;32503;47.748;8.960;2022-12-07T06:19:11;26.43;;;12.77;;
3149;SDS011;32503;47.748;8.960;2022-12-07T06:21:38;29.10;;;14.30;;
3149;SDS011;32503;47.748;8.960;2022-12-07T06:24:05;27.70;;;12.70;;
3149;SDS011;32503;47.748;8.960;2022-12-07T06:26:33;30.10;;;13.93;;
3149;SDS011;32503;47.748;8.960;2022-12-07T06:29:00;29.23;;;13.83;;
3149;SDS011;32503;47.748;8.960;2022-12-07T06:31:27;30.00;;;12.97;;
3149;SDS011;32503;47.748;8.960;2022-12-07T06:33:58;28.90;;;13.93;;
3149;SDS011;32503;47.748;8.960;2022-12-07T06:36:25;24.27;;;11.60;;
3149;SDS011;32503;47.748;8.960;2022-12-07T06:38:53;23.73;;;12.17;;
3149;SDS011;32503;47.748;8.960;2022-12-07T06:41:20;21.30;;;12.60;;
3149;SDS011;32503;47.748;8.960;2022-12-07T06:43:47;31.33;;;12.57;;
3149;SDS011;32503;47.748;8.960;2022-12-07T06:46:14;28.07;;;13.70;;
3149;SDS011;32503;47.748;8.960;2022-12-07T06:48:42;24.77;;;12.23;;
3149;SDS011;32503;47.748;8.960;2022-12-07T06:51:10;23.97;;;13.00;;
3149;SDS011;32503;47.748;8.960;2022-12-07T06:53:38;25.07;;;13.40;;
3149;SDS011;32503;47.748;8.960;2022-12-07T06:56:05;26.97;;;13.90;;
3149;SDS011;32503;47.748;8.960;2022-12-07T06:58:33;22.30;;;11.23;;
3149;SDS011;32503;47.748;8.960;2022-12-07T07:01:00;26.27;;;12.90;;
3149;SDS011;32503;47.748;8.960;2022-12-07T07:03:27;31.20;;;14.23;;
3149;SDS011;32503;47.748;8.960;2022-12-07T07:05:55;27.37;;;12.23;;
3149;SDS011;32503;47.748;8.960;2022-12-07T07:08:23;22.77;;;11.93;;
3149;SDS011;32503;47.748;8.960;2022-12-07T07:10:50;25.27;;;12.87;;
3149;SDS011;32503;47.748;8.960;2022-12-07T07:13:17;20.70;;;10.37;;
3149;SDS011;32503;47.748;8.960;2022-12-07T07:15:44;26.13;;;13.30;;
3149;SDS011;32503;47.748;8.960;2022-12-07T07:18:12;25.10;;;13.20;;
3149;SDS011;32503;47.748;8.960;2022-12-07T07:20:39;27.33;;;14.00;;
3149;SDS011;32503;47.748;8.960;2022-12-07T07:23:06;25.90;;;13.23;;
3149;SDS011;32503;47.748;8.960;2022-12-07T07:25:35;26.30;;;13.07;;
3149;SDS011;32503;47.748;8.960;2022-12-07T07:28:02;30.93;;;15.20;;
3149;SDS011;32503;47.748;8.960;2022-12-07T07:30:30;33.13;;;15.80;;
3149;SDS011;32503;47.748;8.960;2022-12-07T07:32:57;29.13;;;14.97;;
3149;SDS011;32503;47.748;8.960;2022-12-07T07:35:24;31.70;;;14.70;;
3149;SDS011;32503;47.748;8.960;2022-12-07T07:37:52;34.30;;;16.73;;
3149;SDS011;32503;47.748;8.960;2022-12-07T07:40:19;33.30;;;16.80;;
3149;SDS011;32503;47.748;8.960;2022-12-07T07:42:48;33.00;;;17.17;;
3149;SDS011;32503;47.748;8.960;2022-12-07T07:45:17;38.37;;;17.10;;
3149;SDS011;32503;47.748;8.960;2022-12-07T07:47:45;26.70;;;13.70;;
3149;SDS011;32503;47.748;8.960;2022-12-07T07:50:12;28.17;;;13.30;;
3149;SDS011;32503;47.748;8.960;2022-12-07T07:52:40;31.27;;;15.80;;
3149;SDS011;32503;47.748;8.960;2022-12-07T07:55:08;30.80;;;16.80;;
3149;SDS011;32503;47.748;8.960;2022-12-07T07:57:35;29.57;;;15.30;;
3149;SDS011;32503;47.748;8.960;2022-12-07T08:00:06;34.97;;;17.43;;
3149;SDS011;32503;47.748;8.960;2022-12-07T08:02:36;36.37;;;15.70;;
3149;SDS011;32503;47.748;8.960;2022-12-07T08:05:03;27.37;;;12.67;;
3149;SDS011;32503;47.748;8.960;2022-12-07T08:07:31;101.23;;;33.57;;
3149;SDS011;32503;47.748;8.960;2022-12-07T08:09:58;54.80;;;22.63;;
3149;SDS011;32503;47.748;8.960;2022-12-07T08:12:25;85.07;;;33.53;;
3149;SDS011;32503;47.748;8.960;2022-12-07T08:14:52;57.23;;;24.77;;
3149;SDS011;32503;47.748;8.960;2022-12-07T08:17:21;45.53;;;20.53;;
3149;SDS011;32503;47.748;8.960;2022-12-07T08:19:48;34.63;;;15.67;;
3149;SDS011;32503;47.748;8.960;2022-12-07T08:22:15;27.27;;;14.43;;
3149;SDS011;32503;47.748;8.960;2022-12-07T08:24:42;28.50;;;14.10;;
3149;SDS011;32503;47.748;8.960;2022-12-07T08:27:09;32.63;;;14.10;;
3149;SDS011;32503;47.748;8.960;2022-12-07T08:29:36;27.77;;;12.70;;
3149;SDS011;32503;47.748;8.960;2022-12-07T08:32:03;24.60;;;11.90;;
3149;SDS011;32503;47.748;8.960;2022-12-07T08:34:31;24.33;;;12.20;;
3149;SDS011;32503;47.748;8.960;2022-12-07T08:36:58;24.20;;;13.80;;
3149;SDS011;32503;47.748;8.960;2022-12-07T08:39:26;22.63;;;12.50;;
3149;SDS011;32503;47.748;8.960;2022-12-07T08:41:53;29.30;;;13.23;;
3149;SDS011;32503;47.748;8.960;2022-12-07T08:44:21;23.00;;;12.50;;
3149;SDS011;32503;47.748;8.960;2022-12-07T08:46:48;26.50;;;13.60;;
3149;SDS011;32503;47.748;8.960;2022-12-07T08:49:20;26.80;;;13.60;;
3149;SDS011;32503;47.748;8.960;2022-12-07T08:51:52;26.87;;;13.40;;
3149;SDS011;32503;47.748;8.960;2022-12-07T08:54:20;32.07;;;14.90;;
3149;SDS011;32503;47.748;8.960;2022-12-07T08:56:48;35.23;;;15.30;;
3149;SDS011;32503;47.748;8.960;2022-12-07T08:59:17;27.33;;;12.43;;
3149;SDS011;32503;47.748;8.960;2022-12-07T09:01:45;30.57;;;14.30;;
3149;SDS011;32503;47.748;8.960;2022-12-07T09:04:12;32.50;;;13.80;;
3149;SDS011;32503;47.748;8.960;2022-12-07T09:06:40;30.30;;;14.40;;
3149;SDS011;32503;47.748;8.960;2022-12-07T09:09:09;32.70;;;14.50;;
3149;SDS011;32503;47.748;8.960;2022-12-07T09:11:38;29.77;;;13.77;;
3149;SDS011;32503;47.748;8.960;2022-12-07T09:14:05;13.10;;;8.73;;
3149;SDS011;32503;47.748;8.960;2022-12-07T09:16:32;24.70;;;11.77;;
3149;SDS011;32503;47.748;8.960;2022-12-07T09:18:59;33.77;;;15.07;;
3149;SDS011;32503;47.748;8.960;2022-12-07T09:21:26;33.13;;;16.50;;
3149;SDS011;32503;47.748;8.960;2022-12-07T09:23:53;26.47;;;13.17;;
3149;SDS011;32503;47.748;8.960;2022-12-07T09:26:22;27.37;;;15.37;;
3149;SDS011;32503;47.748;8.960;2022-12-07T09:28:49;27.80;;;13.60;;
3149;SDS011;32503;47.748;8.960;2022-12-07T09:31:16;29.20;;;13.40;;
3149;SDS011;32503;47.748;8.960;2022-12-07T09:33:43;25.77;;;12.30;;
3149;SDS011;32503;47.748;8.960;2022-12-07T09:36:10;29.73;;;13.20;;
3149;SDS011;32503;47.748;8.960;2022-12-07T09:38:37;33.23;;;15.20;;
3149;SDS011;32503;47.748;8.960;2022-12-07T09:41:05;27.03;;;14.07;;
3149;SDS011;32503;47.748;8.960;2022-12-07T09:43:34;28.37;;;14.07;;
3149;SDS011;32503;47.748;8.960;2022-12-07T09:46:05;22.93;;;12.50;;
3149;SDS011;32503;47.748;8.960;2022-12-07T09:48:32;22.60;;;11.43;;
3149;SDS011;32503;47.748;8.960;2022-12-07T09:51:10;26.73;;;13.87;;
3149;SDS011;32503;47.748;8.960;2022-12-07T09:53:42;23.47;;;11.80;;
3149;SDS011;32503;47.748;8.960;2022-12-07T09:56:11;22.07;;;11.53;;
3149;SDS011;32503;47.748;8.960;2022-12-07T09:58:41;18.47;;;12.63;;
3149;SDS011;32503;47.748;8.960;2022-12-07T10:01:11;33.43;;;13.90;;
3149;SDS011;32503;47.748;8.960;2022-12-07T10:03:42;29.67;;;13.63;;
3149;SDS011;32503;47.748;8.960;2022-12-07T10:06:14;26.87;;;14.00;;
3149;SDS011;32503;47.748;8.960;2022-12-07T10:08:41;25.87;;;12.97;;
3149;SDS011;32503;47.748;8.960;2022-12-07T10:11:09;26.83;;;14.80;;
3149;SDS011;32503;47.748;8.960;2022-12-07T10:13:37;28.63;;;13.63;;
3149;SDS011;32503;47.748;8.960;2022-12-07T10:16:25;23.70;;;13.03;;
3149;SDS011;32503;47.748;8.960;2022-12-07T10:19:17;22.77;;;11.90;;
3149;SDS011;32503;47.748;8.960;2022-12-07T10:22:07;26.23;;;13.10;;
3149;SDS011;32503;47.748;8.960;2022-12-07T10:24:38;26.67;;;13.23;;
3149;SDS011;32503;47.748;8.960;2022-12-07T10:27:16;21.77;;;11.13;;
3149;SDS011;32503;47.748;8.960;2022-12-07T10:29:49;18.00;;;10.83;;
3149;SDS011;32503;47.748;8.960;2022-12-07T10:32:27;17.60;;;10.03;;
3149;SDS011;32503;47.748;8.960;2022-12-07T10:37:49;21.40;;;10.10;;
3149;SDS011;32503;47.748;8.960;2022-12-07T10:40:24;18.23;;;9.90;;
3149;SDS011;32503;47.748;8.960;2022-12-07T10:43:10;23.43;;;10.90;;
3149;SDS011;32503;47.748;8.960;2022-12-07T10:45:58;11.90;;;7.50;;
3149;SDS011;32503;47.748;8.960;2022-12-07T10:48:57;22.67;;;13.37;;
3149;SDS011;32503;47.748;8.960;2022-12-07T10:51:36;15.50;;;9.80;;
3149;SDS011;32503;47.748;8.960;2022-12-07T10:54:12;13.93;;;8.60;;
3149;SDS011;32503;47.748;8.960;2022-12-07T10:56:57;16.40;;;8.80;;
3149;SDS011;32503;47.748;8.960;2022-12-07T11:02:49;19.33;;;9.63;;
3149;SDS011;32503;47.748;8.960;2022-12-07T11:05:37;15.00;;;8.80;;
3149;SDS011;32503;47.748;8.960;2022-12-07T11:08:13;13.00;;;8.20;;
3149;SDS011;32503;47.748;8.960;2022-12-07T11:10:49;13.10;;;8.00;;
3149;SDS011;32503;47.748;8.960;2022-12-07T11:13:28;13.80;;;8.40;;
3149;SDS011;32503;47.748;8.960;2022-12-07T11:16:06;12.47;;;7.97;;
3149;SDS011;32503;47.748;8.960;2022-12-07T11:19:01;13.60;;;8.60;;
3149;SDS011;32503;47.748;8.960;2022-12-07T11:21:43;10.23;;;7.90;;
3149;SDS011;32503;47.748;8.960;2022-12-07T11:24:23;14.10;;;7.73;;
3149;SDS011;32503;47.748;8.960;2022-12-07T11:27:05;15.33;;;9.97;;
3149;SDS011;32503;47.748;8.960;2022-12-07T11:29:47;18.10;;;8.40;;
3149;SDS011;32503;47.748;8.960;2022-12-07T11:32:34;9.53;;;6.40;;
3149;SDS011;32503;47.748;8.960;2022-12-07T11:35:21;15.80;;;7.90;;
3149;SDS011;32503;47.748;8.960;2022-12-07T11:37:57;12.97;;;8.27;;
3149;SDS011;32503;47.748;8.960;2022-12-07T11:40:30;12.67;;;7.03;;
3149;SDS011;32503;47.748;8.960;2022-12-07T11:43:02;9.90;;;7.77;;
3149;SDS011;32503;47.748;8.960;2022-12-07T11:45:40;9.97;;;7.47;;
3149;SDS011;32503;47.748;8.960;2022-12-07T11:48:11;11.03;;;6.83;;
3149;SDS011;32503;47.748;8.960;2022-12-07T11:50:48;12.83;;;6.77;;
3149;SDS011;32503;47.748;8.960;2022-12-07T11:53:22;9.00;;;5.93;;
3149;SDS011;32503;47.748;8.960;2022-12-07T11:55:53;7.63;;;6.43;;
3149;SDS011;32503;47.748;8.960;2022-12-07T11:58:35;7.63;;;6.20;;
3149;SDS011;32503;47.748;8.960;2022-12-07T12:01:31;9.30;;;5.70;;
3149;SDS011;32503;47.748;8.960;2022-12-07T12:04:13;8.73;;;5.70;;
3149;SDS011;32503;47.748;8.960;2022-12-07T12:06:54;8.13;;;5.73;;
3149;SDS011;32503;47.748;8.960;2022-12-07T12:09:23;10.23;;;6.07;;
3149;SDS011;32503;47.748;8.960;2022-12-07T12:15:03;13.63;;;5.93;;
3149;SDS011;32503;47.748;8.960;2022-12-07T12:20:43;7.50;;;5.83;;
3149;SDS011;32503;47.748;8.960;2022-12-07T12:23:18;6.90;;;6.20;;
3149;SDS011;32503;47.748;8.960;2022-12-07T12:25:47;7.57;;;5.63;;
3149;SDS011;32503;47.748;8.960;2022-12-07T12:28:21;6.70;;;5.43;;
3149;SDS011;32503;47.748;8.960;2022-12-07T12:31:04;5.60;;;4.80;;
3149;SDS011;32503;47.748;8.960;2022-12-07T12:33:35;5.27;;;4.73;;
3149;SDS011;32503;47.748;8.960;2022-12-07T12:39:13;6.67;;;5.10;;
3149;SDS011;32503;47.748;8.960;2022-12-07T12:41:56;8.90;;;5.70;;
3149;SDS011;32503;47.748;8.960;2022-12-07T12:47:53;6.80;;;5.77;;
3149;SDS011;32503;47.748;8.960;2022-12-07T12:50:25;5.90;;;5.30;;
3149;SDS011;32503;47.748;8.960;2022-12-07T12:52:56;7.30;;;5.53;;
3149;SDS011;32503;47.748;8.960;2022-12-07T12:56:03;7.90;;;6.37;;
3149;SDS011;32503;47.748;8.960;2022-12-07T13:01:49;14.67;;;9.13;;
3149;SDS011;32503;47.748;8.960;2022-12-07T13:10:34;8.93;;;7.07;;
3149;SDS011;32503;47.748;8.960;2022-12-07T13:25:19;12.73;;;7.03;;
3149;SDS011;32503;47.748;8.960;2022-12-07T13:28:04;13.00;;;6.77;;
3149;SDS011;32503;47.748;8.960;2022-12-07T13:30:44;13.40;;;7.53;;
3149;SDS011;32503;47.748;8.960;2022-12-07T13:33:20;15.33;;;8.60;;
3149;SDS011;32503;47.748;8.960;2022-12-07T13:35:47;12.33;;;8.13;;
3149;SDS011;32503;47.748;8.960;2022-12-07T13:38:25;8.37;;;7.20;;
3149;SDS011;32503;47.748;8.960;2022-12-07T13:41:01;10.80;;;7.27;;
3149;SDS011;32503;47.748;8.960;2022-12-07T13:43:31;10.97;;;7.90;;
3149;SDS011;32503;47.748;8.960;2022-12-07T13:46:14;11.80;;;7.70;;
3149;SDS011;32503;47.748;8.960;2022-12-07T13:48:44;14.47;;;8.70;;
3149;SDS011;32503;47.748;8.960;2022-12-07T13:51:17;12.07;;;8.20;;
3149;SDS011;32503;47.748;8.960;2022-12-07T13:53:47;14.17;;;8.07;;
3149;SDS011;32503;47.748;8.960;2022-12-07T13:56:16;17.07;;;9.80;;
3149;SDS011;32503;47.748;8.960;2022-12-07T13:58:43;10.50;;;7.70;;
3149;SDS011;32503;47.748;8.960;2022-12-07T14:01:10;8.43;;;7.30;;
3149;SDS011;32503;47.748;8.960;2022-12-07T14:03:40;13.77;;;8.10;;
3149;SDS011;32503;47.748;8.960;2022-12-07T14:06:17;10.60;;;7.43;;
3149;SDS011;32503;47.748;8.960;2022-12-07T14:08:50;10.57;;;7.37;;
3149;SDS011;32503;47.748;8.960;2022-12-07T14:11:31;8.53;;;7.23;;
3149;SDS011;32503;47.748;8.960;2022-12-07T14:14:00;18.80;;;10.67;;
3149;SDS011;32503;47.748;8.960;2022-12-07T14:16:29;28.27;;;15.73;;
3149;SDS011;32503;47.748;8.960;2022-12-07T14:19:00;20.20;;;12.07;;
3149;SDS011;32503;47.748;8.960;2022-12-07T14:21:30;10.20;;;8.10;;
3149;SDS011;32503;47.748;8.960;2022-12-07T14:24:09;14.73;;;8.23;;
3149;SDS011;32503;47.748;8.960;2022-12-07T14:26:42;12.67;;;7.67;;
3149;SDS011;32503;47.748;8.960;2022-12-07T14:29:21;8.47;;;6.80;;
3149;SDS011;32503;47.748;8.960;2022-12-07T14:31:56;9.00;;;7.47;;
3149;SDS011;32503;47.748;8.960;2022-12-07T14:34:27;15.67;;;7.57;;
3149;SDS011;32503;47.748;8.960;2022-12-07T14:36:55;10.87;;;6.77;;
3149;SDS011;32503;47.748;8.960;2022-12-07T14:39:22;10.23;;;7.40;;
3149;SDS011;32503;47.748;8.960;2022-12-07T14:41:49;10.73;;;7.27;;
3149;SDS011;32503;47.748;8.960;2022-12-07T14:44:19;6.30;;;5.80;;
3149;SDS011;32503;47.748;8.960;2022-12-07T14:46:48;9.90;;;6.50;;
3149;SDS011;32503;47.748;8.960;2022-12-07T14:49:16;7.77;;;6.00;;
3149;SDS011;32503;47.748;8.960;2022-12-07T14:51:46;8.03;;;6.73;;
3149;SDS011;32503;47.748;8.960;2022-12-07T14:54:15;7.90;;;6.37;;
3149;SDS011;32503;47.748;8.960;2022-12-07T14:56:44;6.90;;;5.67;;
3149;SDS011;32503;47.748;8.960;2022-12-07T14:59:14;6.70;;;5.23;;
3149;SDS011;32503;47.748;8.960;2022-12-07T15:01:41;6.90;;;5.30;;
3149;SDS011;32503;47.748;8.960;2022-12-07T15:04:09;5.20;;;4.70;;
3149;SDS011;32503;47.748;8.960;2022-12-07T15:06:36;8.97;;;5.63;;
3149;SDS011;32503;47.748;8.960;2022-12-07T15:09:04;5.67;;;4.90;;
3149;SDS011;32503;47.748;8.960;2022-12-07T15:11:32;7.50;;;4.90;;
3149;SDS011;32503;47.748;8.960;2022-12-07T15:13:59;7.93;;;5.70;;
3149;SDS011;32503;47.748;8.960;2022-12-07T15:16:36;10.70;;;6.20;;
3149;SDS011;32503;47.748;8.960;2022-12-07T15:19:08;5.67;;;5.27;;
3149;SDS011;32503;47.748;8.960;2022-12-07T15:21:39;6.73;;;5.87;;
3149;SDS011;32503;47.748;8.960;2022-12-07T15:24:08;8.40;;;5.30;;
3149;SDS011;32503;47.748;8.960;2022-12-07T15:26:37;6.00;;;5.50;;
3149;SDS011;32503;47.748;8.960;2022-12-07T15:29:05;7.07;;;6.17;;
3149;SDS011;32503;47.748;8.960;2022-12-07T15:31:33;8.60;;;5.90;;
3149;SDS011;32503;47.748;8.960;2022-12-07T15:34:00;5.73;;;5.20;;
3149;SDS011;32503;47.748;8.960;2022-12-07T15:36:27;6.13;;;5.30;;
3149;SDS011;32503;47.748;8.960;2022-12-07T15:38:57;5.57;;;5.07;;
3149;SDS011;32503;47.748;8.960;2022-12-07T15:41:26;7.63;;;4.97;;
3149;SDS011;32503;47.748;8.960;2022-12-07T15:43:53;6.43;;;5.50;;
3149;SDS011;32503;47.748;8.960;2022-12-07T15:46:38;5.07;;;4.63;;
3149;SDS011;32503;47.748;8.960;2022-12-07T15:49:08;6.50;;;4.87;;